Time;durP1;ratioP1;P1;durP2;ratioP2;P2;SDS_P1;SDS_P2;PMS_P1;PMS_P2;Temp;Humidity;BMP_temperature;BMP_pressure;BME280_temperature;BME280_humidity;BME280_pressure;Samples;Min_cycle;Max_cycle;Signal;HPM_P1;HPM_P2
2023/07/08 00:00:55;;;;;;;8.68;2.37;;;;;;;23.90;42.64;100097.03;4429058;32;33012;-63
2023/07/08 00:03:23;;;;;;;17.87;2.33;;;;;;;23.88;42.75;100095.53;4430302;32;33510;-63
2023/07/08 00:05:55;;;;;;;2.78;1.83;;;;;;;23.89;42.70;100092.63;4428690;32;33743;-63
2023/07/08 00:08:23;;;;;;;3.80;1.95;;;;;;;23.87;42.68;100091.13;4412098;32;34602;-62
2023/07/08 00:10:51;;;;;;;4.47;1.85;;;;;;;23.77;43.00;100088.69;4432419;32;34162;-63
2023/07/08 00:13:18;;;;;;;5.57;2.28;;;;;;;23.76;43.11;100094.37;4429211;32;34836;-62
2023/07/08 00:15:47;;;;;;;9.35;2.40;;;;;;;23.76;43.32;100097.94;4428990;32;33901;-62
2023/07/08 00:18:16;;;;;;;3.12;1.60;;;;;;;23.73;43.42;100092.84;4430351;32;33441;-63
2023/07/08 00:20:45;;;;;;;4.07;1.75;;;;;;;23.61;43.57;100087.00;4432486;32;33344;-63
2023/07/08 00:23:13;;;;;;;5.18;2.17;;;;;;;23.66;43.12;100103.66;4431417;32;33693;-64
2023/07/08 00:25:42;;;;;;;4.00;2.30;;;;;;;23.59;43.19;100094.53;4431198;32;33639;-62
2023/07/08 00:28:14;;;;;;;2.80;1.83;;;;;;;23.54;43.29;100094.25;4428127;32;33933;-63
2023/07/08 00:30:42;;;;;;;4.70;2.12;;;;;;;23.46;43.37;100097.09;4434212;32;32788;-62
2023/07/08 00:33:10;;;;;;;7.93;2.55;;;;;;;23.56;43.20;100096.78;4429878;32;33436;-62
2023/07/08 00:35:40;;;;;;;6.10;2.37;;;;;;;23.53;43.17;100080.78;4433543;32;34377;-62
2023/07/08 00:38:19;;;;;;;3.08;1.98;;;;;;;23.48;43.33;100084.09;4427981;32;34684;-62
2023/07/08 00:40:52;;;;;;;4.87;2.10;;;;;;;23.36;43.46;100091.06;4427920;32;31880;-62
2023/07/08 00:43:23;;;;;;;3.90;2.08;;;;;;;23.28;43.57;100083.84;4432245;32;35037;-62
2023/07/08 00:45:53;;;;;;;4.97;1.77;;;;;;;23.24;43.63;100085.22;4432889;32;34051;-63
2023/07/08 00:48:33;;;;;;;5.25;1.98;;;;;;;23.08;44.05;100080.81;4422720;32;33675;-63
2023/07/08 00:51:01;;;;;;;4.20;2.12;;;;;;;23.13;43.85;100081.09;4435981;32;33455;-63
2023/07/08 00:53:33;;;;;;;5.78;3.40;;;;;;;23.16;43.70;100088.91;4436089;32;33709;-62
2023/07/08 00:56:05;;;;;;;4.10;1.85;;;;;;;23.12;43.74;100090.31;4433121;32;33961;-63
2023/07/08 00:58:53;;;;;;;4.37;1.75;;;;;;;23.07;43.83;100086.47;4429551;32;33906;-63
2023/07/08 01:01:21;;;;;;;6.80;2.17;;;;;;;23.09;43.73;100079.78;4433446;32;35066;-63
2023/07/08 01:03:57;;;;;;;4.12;1.90;;;;;;;23.07;43.80;100092.75;4433614;32;33641;-62
2023/07/08 01:06:31;;;;;;;9.73;2.15;;;;;;;23.05;43.88;100088.50;4430108;32;34533;-62
2023/07/08 01:09:04;;;;;;;3.92;1.95;;;;;;;22.96;44.24;100088.63;4421977;32;35031;-62
2023/07/08 01:11:32;;;;;;;3.53;1.85;;;;;;;22.97;44.24;100086.72;4431734;32;32923;-62
2023/07/08 01:14:01;;;;;;;7.37;2.67;;;;;;;22.96;44.28;100087.78;4422848;32;33520;-63
2023/07/08 01:16:33;;;;;;;5.95;2.17;;;;;;;22.97;44.17;100087.56;4434324;32;33992;-62
2023/07/08 01:19:03;;;;;;;4.47;2.42;;;;;;;22.90;44.22;100089.34;4434466;32;34966;-62
2023/07/08 01:21:39;;;;;;;5.05;1.70;;;;;;;22.92;44.11;100100.03;4434384;32;33225;-62
2023/07/08 01:24:09;;;;;;;4.57;2.00;;;;;;;22.93;44.11;100089.00;4434443;32;34637;-62
2023/07/08 01:26:43;;;;;;;3.80;1.83;;;;;;;22.92;43.94;100086.41;4431677;32;35209;-62
2023/07/08 01:29:12;;;;;;;9.35;1.73;;;;;;;22.89;44.03;100084.91;4428711;32;33966;-62
2023/07/08 01:31:40;;;;;;;12.10;2.72;;;;;;;22.96;43.92;100085.88;4419734;32;33200;-62
2023/07/08 01:34:10;;;;;;;5.57;1.87;;;;;;;22.97;44.04;100086.72;4428853;32;33838;-62
2023/07/08 01:36:42;;;;;;;7.22;2.35;;;;;;;22.93;44.06;100088.13;4426328;32;35679;-62
2023/07/08 01:39:15;;;;;;;4.10;2.28;;;;;;;22.92;44.07;100080.94;4433265;32;34575;-62
2023/07/08 01:41:44;;;;;;;3.47;1.62;;;;;;;22.84;44.26;100086.50;4433646;32;33136;-63
2023/07/08 01:44:43;;;;;;;6.25;2.37;;;;;;;22.75;44.46;100083.00;4426132;32;34681;-62
2023/07/08 01:47:17;;;;;;;4.15;2.03;;;;;;;22.80;44.26;100080.56;4395317;32;33807;-63
2023/07/08 01:49:46;;;;;;;3.22;2.03;;;;;;;22.73;44.42;100085.94;4389563;32;34576;-63
2023/07/08 01:52:15;;;;;;;5.00;1.73;;;;;;;22.61;44.73;100081.09;4396108;32;32905;-62
2023/07/08 01:54:43;;;;;;;3.05;1.65;;;;;;;22.58;45.09;100081.47;4386456;32;34589;-61
2023/07/08 01:57:10;;;;;;;9.13;3.00;;;;;;;22.45;44.99;100077.47;4387316;32;35077;-61
2023/07/08 01:59:38;;;;;;;2.08;1.55;;;;;;;22.41;45.07;100076.16;4388709;32;32723;-62
2023/07/08 02:02:06;;;;;;;3.90;2.00;;;;;;;22.43;44.89;100076.81;4398612;32;33968;-62
2023/07/08 02:04:34;;;;;;;3.53;1.50;;;;;;;22.40;45.16;100070.87;4396159;32;34184;-61
2023/07/08 02:07:01;;;;;;;4.20;1.90;;;;;;;22.32;45.39;100074.53;4398286;32;35192;-61
2023/07/08 02:09:30;;;;;;;4.12;2.25;;;;;;;22.41;45.06;100072.59;4387217;32;33436;-62
2023/07/08 02:11:59;;;;;;;4.82;1.92;;;;;;;22.35;45.14;100076.03;4387421;32;32825;-61
2023/07/08 02:14:26;;;;;;;5.20;2.80;;;;;;;22.46;44.59;100070.13;4392905;32;34005;-61
2023/07/08 02:16:54;;;;;;;3.87;2.15;;;;;;;22.47;44.54;100072.69;4397076;32;35403;-62
2023/07/08 02:19:22;;;;;;;4.15;2.15;;;;;;;22.47;44.45;100080.87;4399991;32;33500;-61
2023/07/08 02:21:51;;;;;;;4.50;2.10;;;;;;;22.45;44.50;100082.94;4393044;32;33369;-62
2023/07/08 02:24:19;;;;;;;3.30;1.90;;;;;;;22.44;44.61;100083.97;4406508;32;33618;-61
2023/07/08 02:26:47;;;;;;;5.37;2.17;;;;;;;22.43;44.56;100084.13;4415512;32;34508;-62
2023/07/08 02:29:15;;;;;;;2.80;1.62;;;;;;;22.31;44.88;100083.72;4413250;32;33456;-63
2023/07/08 02:31:43;;;;;;;6.22;2.62;;;;;;;22.24;44.95;100078.16;4407107;32;32059;-62
2023/07/08 02:34:11;;;;;;;5.87;1.92;;;;;;;22.14;45.21;100077.50;4418407;32;33414;-62
2023/07/08 02:36:40;;;;;;;3.35;1.90;;;;;;;22.06;45.36;100072.97;4411002;32;34401;-62
2023/07/08 02:39:08;;;;;;;4.50;2.03;;;;;;;22.11;45.24;100069.69;4412718;32;34371;-62
2023/07/08 02:41:36;;;;;;;4.55;2.40;;;;;;;22.07;45.32;100074.66;4411332;32;32918;-62
2023/07/08 02:44:04;;;;;;;5.80;1.83;;;;;;;22.00;45.61;100075.59;4409683;32;33570;-63
2023/07/08 02:46:32;;;;;;;3.17;1.67;;;;;;;22.00;45.50;100084.59;4411090;32;33942;-63
2023/07/08 02:48:59;;;;;;;4.25;2.40;;;;;;;21.91;45.69;100088.41;4406128;32;34737;-62
2023/07/08 02:51:27;;;;;;;3.78;1.92;;;;;;;21.91;45.61;100084.84;4405570;32;34542;-63
2023/07/08 02:53:55;;;;;;;4.30;2.45;;;;;;;21.96;45.52;100087.84;4407542;32;33637;-62
2023/07/08 02:56:23;;;;;;;2.67;1.48;;;;;;;21.97;45.39;100090.41;4416663;32;34125;-62
2023/07/08 02:58:50;;;;;;;3.70;2.37;;;;;;;21.92;45.43;100087.38;4421494;32;34589;-62
2023/07/08 03:01:18;;;;;;;3.65;1.80;;;;;;;21.95;45.38;100086.16;4415648;32;35051;-62
2023/07/08 03:03:46;;;;;;;5.47;2.00;;;;;;;21.96;45.42;100087.84;4435224;32;33649;-62
2023/07/08 03:06:14;;;;;;;6.00;2.97;;;;;;;21.96;45.41;100083.28;4433872;32;34892;-63
2023/07/08 03:08:42;;;;;;;3.55;2.25;;;;;;;21.90;45.62;100085.88;4421291;32;33658;-62
2023/07/08 03:11:10;;;;;;;4.12;2.10;;;;;;;21.83;45.65;100091.19;4426605;32;33212;-62
2023/07/08 03:13:37;;;;;;;4.18;2.10;;;;;;;21.86;45.56;100094.41;4433217;32;33521;-62
2023/07/08 03:16:12;;;;;;;5.15;2.10;;;;;;;21.81;45.68;100094.06;4434474;32;33904;-62
2023/07/08 03:18:45;;;;;;;3.20;1.45;;;;;;;21.81;45.69;100093.25;4432628;32;34748;-62
2023/07/08 03:21:15;;;;;;;3.42;1.70;;;;;;;21.78;45.84;100093.59;4433986;32;33979;-62
2023/07/08 03:23:43;;;;;;;5.85;2.62;;;;;;;21.78;45.76;100097.16;4435863;32;35157;-62
2023/07/08 03:26:26;;;;;;;5.15;2.30;;;;;;;21.82;45.52;100095.78;4436370;32;33598;-62
2023/07/08 03:28:57;;;;;;;3.28;1.92;;;;;;;21.74;45.70;100112.19;4435625;32;34106;-62
2023/07/08 03:31:24;;;;;;;7.78;3.28;;;;;;;21.70;45.85;100099.94;4434235;32;33290;-62
2023/07/08 03:33:52;;;;;;;3.08;1.95;;;;;;;21.69;45.93;100103.69;4435290;32;33779;-62
2023/07/08 03:36:23;;;;;;;4.82;2.42;;;;;;;21.74;45.89;100103.16;4434691;32;35027;-62
2023/07/08 03:38:56;;;;;;;4.72;2.35;;;;;;;21.73;45.93;100099.56;4434048;32;34054;-62
2023/07/08 03:41:24;;;;;;;10.00;1.95;;;;;;;21.84;45.74;100109.22;4435975;32;33492;-61
2023/07/08 03:43:52;;;;;;;4.05;2.45;;;;;;;21.88;45.63;100107.84;4434141;32;33712;-61
2023/07/08 03:46:21;;;;;;;3.90;2.03;;;;;;;21.90;45.71;100111.25;4426479;32;33657;-62
2023/07/08 03:48:50;;;;;;;4.28;2.78;;;;;;;21.86;45.84;100110.75;4435878;32;34109;-61
2023/07/08 03:51:21;;;;;;;3.65;1.58;;;;;;;21.95;45.71;100116.97;4435580;32;33972;-61
2023/07/08 03:53:51;;;;;;;7.22;2.00;;;;;;;22.06;45.46;100107.56;4434619;32;34685;-62
2023/07/08 03:56:19;;;;;;;3.33;2.35;;;;;;;22.12;45.32;100105.97;4435551;32;35034;-61
2023/07/08 03:58:46;;;;;;;6.53;2.28;;;;;;;22.06;45.53;100104.84;4434968;32;33375;-62
2023/07/08 04:01:16;;;;;;;4.97;2.20;;;;;;;22.00;45.79;100114.59;4432864;32;33521;-61
2023/07/08 04:03:44;;;;;;;4.03;1.80;;;;;;;22.12;45.65;100106.84;4435692;32;34944;-61
2023/07/08 04:06:12;;;;;;;9.50;2.25;;;;;;;22.14;45.78;100107.50;4432998;32;33964;-62
2023/07/08 04:08:40;;;;;;;3.95;1.77;;;;;;;22.28;45.72;100108.66;4426129;32;33550;-63
2023/07/08 04:11:13;;;;;;;7.10;1.80;;;;;;;22.35;45.67;100109.59;4434340;32;35302;-62
2023/07/08 04:13:41;;;;;;;6.70;2.42;;;;;;;22.41;45.65;100116.22;4436512;32;33586;-62
2023/07/08 04:16:13;;;;;;;2.78;1.62;;;;;;;;;;4434750;32;33920;-62
2023/07/08 04:18:42;;;;;;;3.33;1.55;;;;;;;22.62;45.21;100112.78;4431819;32;34686;-62
2023/07/08 04:21:10;;;;;;;6.65;2.08;;;;;;;22.78;44.85;100112.63;4434845;32;32947;-62
2023/07/08 04:23:40;;;;;;;2.92;1.55;;;;;;;22.90;44.60;100118.50;4435053;32;35051;-62
2023/07/08 04:26:08;;;;;;;4.97;2.37;;;;;;;23.04;44.52;100123.16;4435367;32;33845;-62
2023/07/08 04:28:36;;;;;;;3.45;1.77;;;;;;;23.14;44.44;100117.44;4433042;32;34637;-63
2023/07/08 04:31:04;;;;;;;5.00;2.20;;;;;;;23.24;44.34;100116.13;4435299;32;33338;-63
2023/07/08 04:33:31;;;;;;;5.25;2.95;;;;;;;23.40;43.61;100112.38;4432756;32;33837;-62
2023/07/08 04:35:59;;;;;;;8.18;2.75;;;;;;;23.54;43.71;100110.66;4433476;32;33670;-63
2023/07/08 04:38:27;;;;;;;4.18;2.03;;;;;;;23.63;43.73;100114.13;4433017;32;34731;-62
2023/07/08 04:40:57;;;;;;;4.12;1.98;;;;;;;23.77;43.04;100115.19;4434896;32;33257;-62
2023/07/08 04:43:28;;;;;;;4.10;2.05;;;;;;;23.74;43.26;100119.13;4421463;32;33596;-63
2023/07/08 04:45:56;;;;;;;5.00;2.83;;;;;;;23.67;43.58;100124.47;4431852;32;35156;-62
2023/07/08 04:48:25;;;;;;;4.85;2.37;;;;;;;23.66;43.86;100125.53;4422886;32;33295;-63
2023/07/08 04:50:53;;;;;;;4.95;2.17;;;;;;;23.69;44.15;100124.31;4430975;32;33537;-63
2023/07/08 04:53:20;;;;;;;5.12;1.95;;;;;;;23.78;44.23;100134.09;4435157;32;34061;-63
2023/07/08 04:55:51;;;;;;;4.93;2.15;;;;;;;23.97;43.80;100134.53;4421610;32;33731;-63
2023/07/08 04:58:19;;;;;;;5.55;2.33;;;;;;;24.05;43.85;100129.81;4401251;32;33600;-63
2023/07/08 05:00:47;;;;;;;4.50;2.08;;;;;;;24.13;43.66;100132.41;4400103;32;33558;-63
2023/07/08 05:03:14;;;;;;;6.45;2.85;;;;;;;24.17;43.32;100127.41;4399218;32;34814;-63
2023/07/08 05:05:42;;;;;;;5.78;2.75;;;;;;;24.21;43.39;100134.19;4403072;32;33744;-63
2023/07/08 05:08:11;;;;;;;3.80;2.10;;;;;;;24.24;43.22;100132.94;4401266;32;35000;-62
2023/07/08 05:10:39;;;;;;;5.70;2.47;;;;;;;24.28;43.71;100129.63;4400433;32;33230;-62
2023/07/08 05:13:07;;;;;;;6.05;2.85;;;;;;;24.46;43.37;100131.09;4396286;32;34661;-63
2023/07/08 05:15:35;;;;;;;6.37;2.55;;;;;;;24.58;43.11;100137.75;4402800;32;35021;-63
2023/07/08 05:18:02;;;;;;;6.32;2.83;;;;;;;24.60;42.88;100131.03;4399154;32;34943;-63
2023/07/08 05:20:32;;;;;;;7.25;3.62;;;;;;;24.69;42.70;100137.22;4402716;32;34353;-63
2023/07/08 05:23:01;;;;;;;4.95;3.15;;;;;;;24.70;43.72;100144.38;4388425;32;33808;-63
2023/07/08 05:25:32;;;;;;;5.37;2.87;;;;;;;24.92;43.76;100141.63;4397065;32;34469;-68
2023/07/08 05:27:59;;;;;;;7.90;3.75;;;;;;;25.06;43.14;100146.16;4396277;32;35016;-62
2023/07/08 05:30:27;;;;;;;4.03;2.08;;;;;;;25.17;43.09;100144.78;4432753;32;33836;-62
2023/07/08 05:32:55;;;;;;;8.65;2.33;;;;;;;25.26;42.73;100144.41;4435659;32;33801;-63
2023/07/08 05:35:24;;;;;;;6.80;3.53;;;;;;;25.31;42.55;100144.66;4431750;32;33939;-63
2023/07/08 05:37:52;;;;;;;6.03;2.78;;;;;;;25.28;42.84;100150.56;4432012;32;33994;-64
2023/07/08 05:40:19;;;;;;;9.68;3.65;;;;;;;25.36;41.56;100155.03;4436065;32;34438;-64
2023/07/08 05:42:47;;;;;;;4.87;2.95;;;;;;;25.54;41.34;100151.75;4437197;32;33856;-63
2023/07/08 05:45:14;;;;;;;6.10;2.40;;;;;;;25.71;41.40;100152.25;4437137;32;34284;-63
2023/07/08 05:47:42;;;;;;;4.47;2.22;;;;;;;25.75;40.81;100156.31;4436344;32;33484;-63
2023/07/08 05:50:10;;;;;;;7.72;2.97;;;;;;;25.69;39.87;100160.72;4437275;32;33853;-63
2023/07/08 05:52:37;;;;;;;5.90;2.50;;;;;;;25.66;39.99;100157.53;4436521;32;33706;-63
2023/07/08 05:55:05;;;;;;;4.62;2.42;;;;;;;25.67;40.16;100156.47;4436146;32;35401;-63
2023/07/08 05:57:33;;;;;;;4.30;2.20;;;;;;;25.75;39.58;100161.78;4437275;32;33436;-63
2023/07/08 06:00:01;;;;;;;4.72;2.22;;;;;;;25.72;39.52;100163.03;4435699;32;33237;-64
2023/07/08 06:02:38;;;;;;;5.62;2.12;;;;;;;25.79;39.58;100163.06;4424320;32;33789;-63
2023/07/08 06:05:06;;;;;;;4.35;1.90;;;;;;;25.91;39.60;100164.22;4438038;32;34139;-63
2023/07/08 06:07:33;;;;;;;3.40;2.17;;;;;;;26.00;39.35;100159.37;4434368;32;33825;-63
2023/07/08 06:10:01;;;;;;;12.52;2.55;;;;;;;26.11;39.09;100157.97;4436721;32;33987;-64
2023/07/08 06:12:30;;;;;;;4.10;2.12;;;;;;;26.22;39.36;100162.84;4436116;32;34729;-63
2023/07/08 06:14:57;;;;;;;10.70;2.25;;;;;;;26.31;39.75;100164.34;4435254;32;34095;-63
2023/07/08 06:17:25;;;;;;;4.12;2.37;;;;;;;26.45;39.60;100167.94;4433959;32;33558;-64
2023/07/08 06:19:53;;;;;;;5.72;2.47;;;;;;;26.51;38.96;100174.53;4436130;32;33095;-63
2023/07/08 06:22:20;;;;;;;5.07;2.67;;;;;;;26.64;38.26;100174.56;4435314;32;33647;-63
2023/07/08 06:25:08;;;;;;;5.12;2.95;;;;;;;26.64;38.63;100169.91;4431929;32;34011;-63
2023/07/08 06:27:36;;;;;;;5.00;2.65;;;;;;;26.80;37.83;100167.81;4436369;32;34201;-63
2023/07/08 06:30:04;;;;;;;7.55;2.37;;;;;;;26.76;37.90;100166.56;4435483;32;33240;-64
2023/07/08 06:32:32;;;;;;;5.93;2.60;;;;;;;26.90;36.65;100163.63;4435983;32;35064;-63
2023/07/08 06:34:59;;;;;;;4.55;2.60;;;;;;;26.58;38.23;100167.16;4435617;32;33443;-63
2023/07/08 06:37:27;;;;;;;4.28;2.10;;;;;;;26.74;38.01;100168.66;4435887;32;35527;-63
2023/07/08 06:39:54;;;;;;;4.87;2.33;;;;;;;27.09;36.65;100169.31;4434930;32;33099;-63
2023/07/08 06:42:22;;;;;;;5.03;2.53;;;;;;;27.20;36.19;100171.44;4436616;32;33958;-63
2023/07/08 06:44:51;;;;;;;7.70;2.58;;;;;;;27.31;36.16;100168.03;4436500;32;34083;-63
2023/07/08 06:47:21;;;;;;;4.53;2.60;;;;;;;27.28;36.74;100162.13;4433789;32;33898;-63
2023/07/08 06:49:49;;;;;;;7.25;2.28;;;;;;;27.39;35.48;100164.25;4435915;32;33802;-63
2023/07/08 06:52:16;;;;;;;6.20;2.87;;;;;;;27.49;35.27;100152.81;4434473;32;33360;-63
2023/07/08 06:54:44;;;;;;;9.07;3.62;;;;;;;27.34;36.07;100158.53;4434640;32;35739;-63
2023/07/08 06:57:11;;;;;;;6.68;3.15;;;;;;;26.87;37.72;100165.91;4435142;32;33779;-64
2023/07/08 06:59:39;;;;;;;6.85;4.03;;;;;;;27.27;38.28;100164.03;4436815;32;33833;-64
2023/07/08 07:02:08;;;;;;;19.17;10.98;;;;;;;27.59;35.44;100153.19;4435209;32;33740;-64
2023/07/08 07:04:35;;;;;;;18.60;9.13;;;;;;;27.60;32.17;100163.13;4426895;32;33939;-64
2023/07/08 07:07:03;;;;;;;4.75;2.08;;;;;;;27.45;34.37;100157.88;4432266;32;33465;-64
2023/07/08 07:09:31;;;;;;;6.20;2.33;;;;;;;27.53;31.81;100154.88;4434650;32;33879;-64
2023/07/08 07:11:59;;;;;;;4.68;2.45;;;;;;;27.73;31.67;100151.22;4432895;32;35678;-64
2023/07/08 07:14:26;;;;;;;4.75;2.53;;;;;;;27.91;32.66;100165.16;4435768;32;33824;-65
2023/07/08 07:16:57;;;;;;;8.25;3.03;;;;;;;27.59;32.97;100148.53;4436503;32;34665;-64
2023/07/08 07:19:35;;;;;;;12.40;4.22;;;;;;;27.91;31.97;100148.66;4434484;32;34205;-64
2023/07/08 07:22:03;;;;;;;6.62;2.85;;;;;;;27.79;31.64;100153.16;4437287;32;33801;-64
2023/07/08 07:24:30;;;;;;;4.43;2.20;;;;;;;27.70;31.73;100151.66;4436420;32;33867;-64
2023/07/08 07:26:58;;;;;;;3.22;1.73;;;;;;;27.80;31.98;100152.94;4434672;32;33660;-64
2023/07/08 07:29:26;;;;;;;7.18;2.58;;;;;;;28.04;30.98;100153.25;4436346;32;33405;-64
2023/07/08 07:31:54;;;;;;;3.92;2.12;;;;;;;28.10;30.90;100150.47;4436599;32;33703;-63
2023/07/08 07:34:22;;;;;;;5.62;1.87;;;;;;;27.98;29.61;100160.47;4433094;32;35016;-63
2023/07/08 07:36:50;;;;;;;3.45;1.75;;;;;;;27.99;30.03;100159.41;4436185;32;33785;-64
2023/07/08 07:39:17;;;;;;;6.68;3.65;;;;;;;27.89;30.72;100152.69;4437342;32;33057;-64
2023/07/08 07:41:45;;;;;;;5.12;2.25;;;;;;;27.85;32.44;100152.28;4435879;32;33610;-64
2023/07/08 07:44:13;;;;;;;5.50;2.85;;;;;;;28.12;30.80;100157.66;4434925;32;35321;-64
2023/07/08 07:46:40;;;;;;;5.82;2.80;;;;;;;28.10;31.02;100157.88;4430822;32;34328;-64
2023/07/08 07:49:08;;;;;;;5.82;2.70;;;;;;;27.94;30.22;100161.12;4434643;32;34210;-64
2023/07/08 07:51:36;;;;;;;3.85;2.62;;;;;;;28.31;30.48;100156.69;4426566;32;263130;-64
2023/07/08 07:54:03;;;;;;;6.87;2.42;;;;;;;28.17;31.85;100155.94;4434896;32;34917;-64
2023/07/08 07:56:32;;;;;;;27.40;2.85;;;;;;;28.17;31.22;100149.59;4435586;32;34692;-64
2023/07/08 07:59:00;;;;;;;13.23;3.30;;;;;;;28.40;30.81;100147.16;4436098;32;33265;-64
2023/07/08 08:01:28;;;;;;;4.80;2.65;;;;;;;28.34;29.90;100146.09;4433604;32;35320;-64
2023/07/08 08:03:56;;;;;;;3.55;1.90;;;;;;;28.45;29.76;100139.09;4431579;32;33980;-64
2023/07/08 08:06:23;;;;;;;5.50;2.50;;;;;;;28.32;30.02;100136.38;4429461;32;33733;-67
2023/07/08 08:08:51;;;;;;;6.37;2.85;;;;;;;28.45;30.16;100141.00;4428515;32;33273;-65
2023/07/08 08:11:19;;;;;;;4.55;2.28;;;;;;;28.37;30.70;100138.47;4433534;32;33906;-65
2023/07/08 08:13:48;;;;;;;8.05;2.08;;;;;;;28.38;31.28;100132.75;4435486;32;34766;-65
2023/07/08 08:16:19;;;;;;;6.87;2.55;;;;;;;28.68;30.58;100135.72;4432340;32;33666;-64
2023/07/08 08:18:47;;;;;;;7.57;2.65;;;;;;;28.59;30.07;100131.56;4430668;32;33643;-64
2023/07/08 08:21:15;;;;;;;5.72;2.80;;;;;;;28.20;29.78;100130.72;4435407;32;33726;-64
2023/07/08 08:23:43;;;;;;;7.55;2.03;;;;;;;28.54;28.44;100139.66;4435398;32;33926;-63
2023/07/08 08:26:10;;;;;;;5.32;2.20;;;;;;;28.40;27.93;100130.62;4432742;32;33494;-64
2023/07/08 08:28:38;;;;;;;4.32;2.25;;;;;;;28.21;29.46;100128.81;4434878;32;34147;-64
2023/07/08 08:31:05;;;;;;;5.53;2.40;;;;;;;28.25;30.21;100139.19;4435572;32;34961;-64
2023/07/08 08:33:33;;;;;;;4.65;2.30;;;;;;;28.61;27.78;100132.19;4434265;32;33959;-65
2023/07/08 08:36:01;;;;;;;6.70;2.50;;;;;;;28.50;29.57;100130.97;4435443;32;34060;-64
2023/07/08 08:38:30;;;;;;;4.55;2.22;;;;;;;28.77;30.42;100128.03;4430697;32;33048;-65
2023/07/08 08:40:57;;;;;;;3.42;1.90;;;;;;;28.92;28.67;100134.03;4435109;32;33788;-65
2023/07/08 08:43:36;;;;;;;7.00;2.28;;;;;;;28.83;28.07;100131.78;4433176;32;34090;-65
2023/07/08 08:46:13;;;;;;;6.00;2.58;;;;;;;28.64;29.08;100129.00;4402337;32;33528;-66
2023/07/08 08:48:48;;;;;;;;;;;;;;;29.19;27.56;100114.53;4396648;32;32934;-63
2023/07/08 08:51:16;;;;;;;5.00;2.28;;;;;;;29.21;28.54;100115.16;4409820;32;34586;-63
2023/07/08 08:53:44;;;;;;;4.47;2.25;;;;;;;28.57;29.50;100119.91;4396866;32;33987;-62
2023/07/08 08:56:20;;;;;;;7.93;2.78;;;;;;;28.77;29.20;100117.03;4410873;32;33587;-63
2023/07/08 08:58:57;;;;;;;4.85;2.47;;;;;;;28.23;30.23;100113.78;4408085;32;33154;-63
2023/07/08 09:01:25;;;;;;;8.40;2.35;;;;;;;28.52;29.66;100109.59;4396178;32;34058;-63
2023/07/08 09:03:59;;;;;;;6.37;2.97;;;;;;;28.61;30.41;100114.84;4395907;32;34955;-63
2023/07/08 09:06:32;;;;;;;5.07;2.87;;;;;;;29.04;28.61;100103.03;4393921;32;34372;-63
2023/07/08 09:09:16;;;;;;;5.37;2.77;;;;;;;29.09;28.31;100101.28;4411772;32;33202;-63
2023/07/08 09:11:59;;;;;;;5.82;2.90;;;;;;;29.34;28.05;100098.50;4391701;32;33674;-62
2023/07/08 09:14:28;;;;;;;6.65;2.33;;;;;;;28.58;29.60;100113.38;4406185;32;33632;-62
2023/07/08 09:17:17;;;;;;;9.13;2.12;;;;;;;28.60;29.25;100111.22;4420418;32;33904;-63
2023/07/08 09:20:15;;;;;;;4.37;2.10;;;;;;;28.62;28.93;100109.09;4425491;32;32832;-62
2023/07/08 09:22:44;;;;;;;5.37;2.55;;;;;;;29.34;28.78;100108.66;4426667;32;34003;-63
2023/07/08 09:25:15;;;;;;;4.47;2.12;;;;;;;29.28;28.45;100104.03;4423295;32;33997;-63
2023/07/08 09:27:42;;;;;;;5.05;2.33;;;;;;;28.87;27.78;100114.59;4427535;32;33619;-62
2023/07/08 09:30:21;;;;;;;8.13;2.50;;;;;;;29.02;27.40;100109.62;4427363;32;33252;-62
2023/07/08 09:32:49;;;;;;;6.28;3.00;;;;;;;29.18;27.47;100116.47;4430158;32;34764;-63
2023/07/08 09:35:19;;;;;;;4.85;2.28;;;;;;;29.37;27.42;100113.72;4424001;32;35002;-63
2023/07/08 09:37:48;;;;;;;6.60;3.22;;;;;;;29.02;28.13;100104.13;4427006;32;34056;-63
2023/07/08 09:40:17;;;;;;;5.12;2.80;;;;;;;29.55;28.38;100108.19;4424397;32;34981;-63
2023/07/08 09:42:50;;;;;;;5.87;2.78;;;;;;;29.65;26.82;100110.44;4424688;32;33834;-63
2023/07/08 09:45:22;;;;;;;8.55;3.75;;;;;;;30.16;27.19;100104.44;4428680;32;34897;-63
2023/07/08 09:47:55;;;;;;;8.32;2.55;;;;;;;29.91;27.28;100104.59;4427524;32;33459;-63
2023/07/08 09:50:26;;;;;;;4.47;2.60;;;;;;;30.29;26.18;100100.69;4428830;32;32930;-63
2023/07/08 09:52:57;;;;;;;5.55;2.30;;;;;;;30.56;26.71;100094.75;4422172;32;33561;-63
2023/07/08 09:55:25;;;;;;;6.37;3.28;;;;;;;30.96;26.96;100094.94;4425630;32;34779;-63
2023/07/08 09:57:54;;;;;;;4.93;2.40;;;;;;;31.34;26.75;100101.94;4432332;32;33536;-64
2023/07/08 10:00:40;;;;;;;4.75;2.30;;;;;;;31.30;26.39;100101.56;4429310;32;33220;-64
2023/07/08 10:03:19;;;;;;;5.37;2.70;;;;;;;31.97;24.75;100094.69;4423398;32;33521;-64
2023/07/08 10:05:48;;;;;;;5.43;3.03;;;;;;;31.83;26.28;100101.56;4424930;32;33889;-64
2023/07/08 10:08:18;;;;;;;6.22;3.17;;;;;;;31.47;25.10;100098.91;4430645;32;33843;-64
2023/07/08 10:10:50;;;;;;;5.95;3.37;;;;;;;31.87;25.27;100089.75;4429928;32;34159;-65
2023/07/08 10:13:50;;;;;;;4.87;2.42;;;;;;;31.32;24.63;100087.47;4420042;32;33641;-64
2023/07/08 10:16:38;;;;;;;5.25;2.87;;;;;;;31.78;24.74;100085.69;4424394;32;33784;-64
2023/07/08 10:19:17;;;;;;;7.12;2.97;;;;;;;31.81;24.57;100085.19;4426248;32;33542;-64
2023/07/08 10:21:44;;;;;;;4.70;2.67;;;;;;;31.29;24.71;100088.78;4413880;32;32957;-64
2023/07/08 10:24:31;;;;;;;5.85;2.92;;;;;;;31.41;24.80;100080.50;4415785;32;34356;-63
2023/07/08 10:27:21;;;;;;;8.23;3.17;;;;;;;31.53;25.62;100080.50;4410365;32;33931;-64
2023/07/08 10:30:16;;;;;;;6.03;2.95;;;;;;;31.52;25.26;100081.56;4404187;32;35266;-63
2023/07/08 10:33:25;;;;;;;8.07;2.97;;;;;;;31.59;24.55;100075.88;4414030;32;33016;-64
2023/07/08 10:36:15;;;;;;;5.15;2.28;;;;;;;31.66;24.17;100076.59;4412154;32;33277;-64
2023/07/08 10:39:11;;;;;;;4.28;2.12;;;;;;;31.88;24.57;100073.97;4404122;32;33759;-63
2023/07/08 10:41:43;;;;;;;5.28;2.47;;;;;;;31.83;24.59;100071.97;4410771;32;34740;-63
2023/07/08 10:44:21;;;;;;;6.97;3.05;;;;;;;31.98;23.40;100064.00;4403153;32;33136;-63
2023/07/08 10:47:01;;;;;;;8.35;2.40;;;;;;;31.82;24.64;100070.28;4424428;32;32593;-63
2023/07/08 10:49:40;;;;;;;7.12;3.25;;;;;;;31.96;24.14;100071.69;4407190;32;33846;-63
2023/07/08 10:52:46;;;;;;;4.75;2.60;;;;;;;32.07;23.95;100063.59;4405280;32;34814;-63
2023/07/08 10:55:20;;;;;;;5.80;2.72;;;;;;;32.06;23.66;100073.00;4402930;32;32848;-63
2023/07/08 10:57:48;;;;;;;7.55;3.62;;;;;;;31.63;24.21;100057.72;4400668;32;34689;-63
2023/07/08 11:00:37;;;;;;;7.80;3.20;;;;;;;31.62;24.23;100058.81;4414689;32;33588;-63
2023/07/08 11:03:21;;;;;;;5.85;3.00;;;;;;;31.49;24.26;100060.78;4399693;32;33946;-63
2023/07/08 11:06:16;;;;;;;5.20;2.40;;;;;;;31.54;24.41;100049.81;4412870;32;34057;-64
2023/07/08 11:08:44;;;;;;;5.37;2.75;;;;;;;32.00;24.55;100050.72;4336452;33;35002;-64
2023/07/08 11:11:12;;;;;;;4.90;2.53;;;;;;;31.69;25.11;100045.69;4337722;32;35110;-63
2023/07/08 11:13:50;;;;;;;5.87;3.30;;;;;;;32.18;24.53;100046.09;4333992;32;32017;-63
2023/07/08 11:16:26;;;;;;;6.32;2.45;;;;;;;31.79;24.92;100045.88;4336598;32;32905;-64
2023/07/08 11:19:25;;;;;;;6.70;3.17;;;;;;;31.60;24.97;100045.22;4333745;32;32872;-63
2023/07/08 11:21:54;;;;;;;8.20;2.95;;;;;;;32.24;23.93;100045.09;4356525;32;33817;-64
2023/07/08 11:24:28;;;;;;;6.05;3.10;;;;;;;31.89;24.79;100039.72;4342476;32;34327;-63
2023/07/08 11:27:00;;;;;;;6.07;3.10;;;;;;;32.37;24.54;100049.47;4356077;32;33092;-65
2023/07/08 11:29:48;;;;;;;5.20;3.17;;;;;;;32.26;24.87;100042.88;4338316;32;34255;-64
2023/07/08 11:32:17;;;;;;;6.07;2.87;;;;;;;32.35;24.17;100037.78;4344552;32;35497;-63
2023/07/08 11:34:47;;;;;;;5.82;3.12;;;;;;;32.58;23.29;100034.03;4353105;32;33462;-64
2023/07/08 11:37:16;;;;;;;5.10;2.75;;;;;;;32.65;23.49;100024.47;4303755;33;33603;-64
2023/07/08 11:39:45;;;;;;;7.12;2.75;;;;;;;32.13;23.17;100021.06;4293311;33;34619;-63
2023/07/08 11:42:20;;;;;;;5.70;3.00;;;;;;;32.36;23.70;100023.69;4306553;33;33934;-64
2023/07/08 11:44:51;;;;;;;3.67;2.15;;;;;;;32.35;24.03;100023.94;4311890;32;33788;-63